createdAt,value
2018-07-23T00:01:19.775Z,84.11
2018-07-23T00:03:50.687Z,83.29
2018-07-23T00:06:20.910Z,82.64
2018-07-23T00:08:55.347Z,82.47
2018-07-23T00:11:26.539Z,81.10
2018-07-23T00:13:57.395Z,80.54
2018-07-23T00:16:30.071Z,81.55
2018-07-23T00:19:01.314Z,81.70
2018-07-23T00:21:32.217Z,80.29
2018-07-23T00:24:03.727Z,79.90
2018-07-23T00:26:38.427Z,80.93
2018-07-23T00:29:09.037Z,81.86
2018-07-23T00:31:40.303Z,81.59
2018-07-23T00:34:10.786Z,79.66
2018-07-23T00:36:41.552Z,81.64
2018-07-23T00:39:11.774Z,80.43
2018-07-23T00:41:46.392Z,80.12
2018-07-23T00:44:17.490Z,79.67
2018-07-23T00:46:53.211Z,79.92
2018-07-23T00:49:24.495Z,80.61
2018-07-23T00:51:55.573Z,79.86
2018-07-23T00:54:25.910Z,78.61
2018-07-23T00:56:55.993Z,79.31
2018-07-23T00:59:27.109Z,79.84
2018-07-23T01:02:00.064Z,79.70
2018-07-23T01:04:32.892Z,79.60
2018-07-23T01:07:04.511Z,79.32
2018-07-23T01:09:35.359Z,80.28
2018-07-23T01:12:07.557Z,79.13
2018-07-23T01:14:38.527Z,80.03
2018-07-23T01:17:10.394Z,79.64
2018-07-23T01:19:43.423Z,79.30
2018-07-23T01:22:15.977Z,80.62
2018-07-23T01:24:46.671Z,80.99
2018-07-23T01:27:16.887Z,80.44
2018-07-23T01:29:47.024Z,79.94
2018-07-23T01:32:18.943Z,81.00
2018-07-23T01:34:49.209Z,80.04
2018-07-23T01:37:24.452Z,79.54
2018-07-23T01:39:55.107Z,80.56
2018-07-23T01:42:25.514Z,80.78
2018-07-23T01:44:57.017Z,80.99
2018-07-23T01:47:27.761Z,81.53
2018-07-23T01:49:58.621Z,82.32
2018-07-23T01:52:29.358Z,81.27
2018-07-23T01:54:59.486Z,81.99
2018-07-23T01:57:32.766Z,81.92
2018-07-23T02:00:05.557Z,82.15
2018-07-23T02:02:36.746Z,82.25
2018-07-23T02:05:07.381Z,81.67
2018-07-23T02:07:37.672Z,82.07
2018-07-23T02:10:07.911Z,82.26
2018-07-23T02:12:38.411Z,82.36
2018-07-23T02:15:08.658Z,81.64
2018-07-23T02:17:39.497Z,82.09
2018-07-23T02:20:10.001Z,82.96
2018-07-23T02:22:40.186Z,82.59
2018-07-23T02:25:10.488Z,82.83
2018-07-23T02:27:41.051Z,82.00
2018-07-23T02:30:11.444Z,82.14
2018-07-23T02:32:41.688Z,82.02
2018-07-23T02:35:16.052Z,81.45
2018-07-23T02:37:46.641Z,81.08
2018-07-23T02:40:16.877Z,81.85
2018-07-23T02:42:49.682Z,81.66
2018-07-23T02:45:19.806Z,81.36
2018-07-23T02:47:51.003Z,82.24
2018-07-23T02:50:22.583Z,81.68
2018-07-23T02:52:54.632Z,82.04
2018-07-23T02:55:24.887Z,82.30
2018-07-23T02:57:55.983Z,82.17
2018-07-23T03:00:29.863Z,81.85
2018-07-23T03:03:00.164Z,81.19
2018-07-23T03:05:31.273Z,83.12
2018-07-23T03:08:02.771Z,82.21
2018-07-23T03:10:33.032Z,82.31
2018-07-23T03:13:03.256Z,81.82
2018-07-23T03:15:34.028Z,82.94
2018-07-23T03:18:06.656Z,82.86
2018-07-23T03:20:37.490Z,82.64
2018-07-23T03:23:07.803Z,82.72
2018-07-23T03:25:39.159Z,82.63
2018-07-23T03:28:09.426Z,83.38
2018-07-23T03:30:39.702Z,82.12
2018-07-23T03:33:09.843Z,83.42
2018-07-23T03:35:40.091Z,83.87
2018-07-23T03:38:10.417Z,83.88
2018-07-23T03:40:41.292Z,83.05
2018-07-23T03:43:11.925Z,83.03
2018-07-23T03:45:43.168Z,84.10
2018-07-23T03:48:19.142Z,83.76
2018-07-23T03:50:49.401Z,83.74
2018-07-23T03:53:19.562Z,84.22
2018-07-23T03:55:50.440Z,84.31
2018-07-23T03:58:20.614Z,83.57
2018-07-23T04:00:50.818Z,84.39
2018-07-23T04:03:21.224Z,83.92
2018-07-23T04:05:55.209Z,83.38
2018-07-23T04:08:25.454Z,83.81
2018-07-23T04:10:56.520Z,84.43
2018-07-23T04:13:26.945Z,84.15
2018-07-23T04:15:57.149Z,84.47
2018-07-23T04:18:27.269Z,84.43
2018-07-23T04:20:58.455Z,84.42
2018-07-23T04:23:29.263Z,84.77
2018-07-23T04:25:59.362Z,84.73
2018-07-23T04:28:29.534Z,84.54
2018-07-23T04:30:59.737Z,84.60
2018-07-23T04:33:30.463Z,84.64
2018-07-23T04:36:00.929Z,84.81
2018-07-23T04:38:33.792Z,84.23
2018-07-23T04:41:04.312Z,84.36
2018-07-23T04:43:34.702Z,85.42
2018-07-23T04:46:06.906Z,84.61
2018-07-23T04:48:37.302Z,85.60
2018-07-23T04:51:08.092Z,85.37
2018-07-23T04:53:38.272Z,85.44
2018-07-23T04:56:08.601Z,84.46
2018-07-23T04:58:39.599Z,83.12
2018-07-23T05:01:09.874Z,83.26
2018-07-23T05:03:40.706Z,83.57
2018-07-23T05:06:16.230Z,83.01
2018-07-23T05:08:46.522Z,83.74
2018-07-23T05:11:16.966Z,82.83
2018-07-23T05:13:49.714Z,83.62
2018-07-23T05:16:20.375Z,83.56
2018-07-23T05:18:50.551Z,83.49
2018-07-23T05:21:21.788Z,83.78
2018-07-23T05:23:52.038Z,84.75
2018-07-23T05:26:23.446Z,85.25
2018-07-23T05:28:53.752Z,85.61
2018-07-23T05:31:23.926Z,86.72
2018-07-23T05:33:54.804Z,86.63
2018-07-23T05:36:24.956Z,85.44
2018-07-23T05:38:55.131Z,85.70
2018-07-23T05:41:25.402Z,84.80
2018-07-23T05:43:55.930Z,84.97
2018-07-23T05:46:26.110Z,83.60
2018-07-23T05:48:58.417Z,83.29
2018-07-23T05:51:28.587Z,82.82
2018-07-23T05:53:58.762Z,83.46
2018-07-23T05:56:28.923Z,85.04
2018-07-23T05:58:59.421Z,84.49
2018-07-23T06:01:31.208Z,84.87
2018-07-23T06:04:04.783Z,84.77
2018-07-23T06:06:35.443Z,84.99
2018-07-23T06:09:09.376Z,84.13
2018-07-23T06:11:41.061Z,83.10
2018-07-23T06:14:12.469Z,80.98
2018-07-23T06:16:49.605Z,80.11
2018-07-23T06:19:21.447Z,77.49
2018-07-23T06:21:51.585Z,77.17
2018-07-23T06:24:25.714Z,78.03
2018-07-23T06:26:56.521Z,76.86
2018-07-23T06:29:28.066Z,75.77
2018-07-23T06:31:58.671Z,76.51
2018-07-23T06:34:29.590Z,74.86
2018-07-23T06:36:59.758Z,75.57
2018-07-23T06:39:29.980Z,76.95
2018-07-23T06:42:01.211Z,76.50
2018-07-23T06:44:31.664Z,75.01
2018-07-23T06:47:02.242Z,73.13
2018-07-23T06:49:32.493Z,74.58
2018-07-23T06:52:07.893Z,73.72
2018-07-23T06:54:38.277Z,72.58
2018-07-23T06:57:09.813Z,71.48
2018-07-23T06:59:40.734Z,72.85
2018-07-23T07:02:11.099Z,71.12
2018-07-23T07:04:41.765Z,71.07
2018-07-23T07:07:14.397Z,71.38
2018-07-23T07:09:46.027Z,70.35
2018-07-23T07:12:16.235Z,68.79
2018-07-23T07:14:47.686Z,69.68
2018-07-23T07:17:20.637Z,68.67
2018-07-23T07:19:51.650Z,67.90
2018-07-23T07:22:21.829Z,67.81
2018-07-23T07:24:52.545Z,68.04
2018-07-23T07:27:25.142Z,65.78
2018-07-23T07:29:57.141Z,64.90
2018-07-23T07:32:28.357Z,65.62
2018-07-23T07:34:58.438Z,64.09
2018-07-23T07:37:28.856Z,63.55
2018-07-23T07:40:00.509Z,65.25
2018-07-23T07:42:31.298Z,63.49
2018-07-23T07:45:03.782Z,64.15
2018-07-23T07:47:36.972Z,62.00
2018-07-23T07:50:07.730Z,62.75
2018-07-23T07:52:38.391Z,63.43
2018-07-23T07:55:09.046Z,63.13
2018-07-23T07:57:39.341Z,62.39
2018-07-23T08:00:10.217Z,62.14
2018-07-23T08:02:41.601Z,61.20
2018-07-23T08:05:11.913Z,62.52
2018-07-23T08:07:43.080Z,62.38
2018-07-23T08:10:17.388Z,63.10
2018-07-23T08:12:49.575Z,62.43
2018-07-23T08:15:25.050Z,63.69
2018-07-23T08:17:58.919Z,62.65
2018-07-23T08:20:29.312Z,61.57
2018-07-23T08:23:00.240Z,61.42
2018-07-23T08:25:30.777Z,60.23
2018-07-23T08:28:01.478Z,60.48
2018-07-23T08:30:34.786Z,59.62
2018-07-23T08:33:07.494Z,59.24
2018-07-23T08:35:45.219Z,59.17
2018-07-23T08:38:18.517Z,58.51
2018-07-23T08:40:56.093Z,59.33
2018-07-23T08:43:29.416Z,59.01
2018-07-23T08:46:01.011Z,59.76
2018-07-23T08:48:31.659Z,57.49
2018-07-23T08:51:08.811Z,56.81
2018-07-23T08:53:41.223Z,56.90
2018-07-23T08:56:18.551Z,57.60
2018-07-23T08:58:50.466Z,55.57
2018-07-23T09:01:21.460Z,54.36
2018-07-23T09:03:52.465Z,54.83
2018-07-23T09:06:24.981Z,54.25
2018-07-23T09:08:57.592Z,54.49
2018-07-23T09:11:28.758Z,54.78
2018-07-23T09:13:59.365Z,53.13
2018-07-23T09:16:32.271Z,52.93
2018-07-23T09:19:08.364Z,55.14
2018-07-23T09:21:38.541Z,53.79
2018-07-23T09:24:13.693Z,54.50
2018-07-23T09:26:44.964Z,52.47
2018-07-23T09:29:15.996Z,53.11
2018-07-23T09:31:48.609Z,54.34
2018-07-23T09:34:19.483Z,52.43
2018-07-23T09:36:49.648Z,51.24
2018-07-23T09:39:21.060Z,53.24
2018-07-23T09:41:51.226Z,53.34
2018-07-23T09:44:23.107Z,54.13
2018-07-23T09:46:55.284Z,53.84
2018-07-23T09:49:25.496Z,52.62
2018-07-23T09:51:56.495Z,52.34
2018-07-23T09:54:27.231Z,53.91
2018-07-23T09:56:57.347Z,52.26
2018-07-23T09:59:27.567Z,50.54
2018-07-23T10:02:00.888Z,52.13
2018-07-23T10:04:37.602Z,50.70
2018-07-23T10:07:07.734Z,50.74
2018-07-23T10:09:37.940Z,51.12
2018-07-23T10:12:09.712Z,50.05
2018-07-23T10:14:40.253Z,52.87
2018-07-23T10:17:10.977Z,50.13
2018-07-23T10:19:41.177Z,48.50
2018-07-23T10:22:11.939Z,48.98
2018-07-23T10:24:43.993Z,47.93
2018-07-23T10:27:15.223Z,50.15
2018-07-23T10:29:46.282Z,49.98
2018-07-23T10:32:18.154Z,49.35
2018-07-23T10:34:48.639Z,50.03
2018-07-23T10:37:19.816Z,49.96
2018-07-23T10:39:52.078Z,49.45
2018-07-23T10:42:23.263Z,46.60
2018-07-23T10:44:54.515Z,47.04
2018-07-23T10:47:25.986Z,46.25
2018-07-23T10:50:00.532Z,46.64
2018-07-23T10:52:30.998Z,45.58
2018-07-23T10:55:02.431Z,45.53
2018-07-23T10:57:33.588Z,45.71
2018-07-23T11:00:04.265Z,46.02
2018-07-23T11:02:41.841Z,45.59
2018-07-23T11:05:13.518Z,45.36
2018-07-23T11:08:10.754Z,46.46
2018-07-23T11:13:40.047Z,45.95
2018-07-23T11:16:12.267Z,44.93
2018-07-23T11:18:42.664Z,45.75
2018-07-23T11:21:13.593Z,46.38
2018-07-23T11:23:43.818Z,46.08
2018-07-23T11:26:15.558Z,46.90
2018-07-23T11:28:46.378Z,46.85
2018-07-23T11:31:17.046Z,44.70
2018-07-23T11:33:48.469Z,42.75
2018-07-23T11:36:19.134Z,44.66
2018-07-23T11:38:53.361Z,42.55
2018-07-23T11:41:26.980Z,43.93
2018-07-23T11:43:57.734Z,43.80
2018-07-23T11:46:28.882Z,43.84
2018-07-23T11:48:59.474Z,44.45
2018-07-23T11:51:33.381Z,43.97
2018-07-23T11:54:04.523Z,44.58
2018-07-23T11:56:37.015Z,45.58
2018-07-23T11:59:08.493Z,43.75
2018-07-23T12:01:38.901Z,44.09
2018-07-23T12:04:12.494Z,42.60
2018-07-23T12:06:43.486Z,42.35
2018-07-23T12:09:14.710Z,42.64
2018-07-23T12:11:46.441Z,41.83
2018-07-23T12:14:18.439Z,41.42
2018-07-23T12:16:50.792Z,41.58
2018-07-23T12:19:31.289Z,42.54
2018-07-23T12:22:05.300Z,40.47
2018-07-23T12:24:39.001Z,40.67
2018-07-23T12:27:10.038Z,40.31
2018-07-23T12:29:40.196Z,41.70
2018-07-23T12:32:12.996Z,39.97
2018-07-23T12:34:45.761Z,41.69
2018-07-23T12:37:16.635Z,39.79
2018-07-23T12:39:55.434Z,40.88
2018-07-23T12:42:26.529Z,41.16
2018-07-23T12:44:57.518Z,41.55
2018-07-23T12:47:32.406Z,40.79
2018-07-23T12:50:02.957Z,41.46
2018-07-23T12:52:38.741Z,42.32
2018-07-23T12:55:13.309Z,42.19
2018-07-23T12:57:47.799Z,40.87
2018-07-23T13:00:18.679Z,40.73
2018-07-23T13:02:50.190Z,40.55
2018-07-23T13:05:24.303Z,40.49
2018-07-23T13:07:55.441Z,40.54
2018-07-23T13:10:27.569Z,41.06
2018-07-23T13:12:59.126Z,40.85
2018-07-23T13:15:31.340Z,41.53
2018-07-23T13:18:04.516Z,40.10
2018-07-23T13:20:35.479Z,38.21
2018-07-23T13:23:07.622Z,39.93
2018-07-23T13:25:40.113Z,39.61
2018-07-23T13:28:11.836Z,39.98
2018-07-23T13:30:50.663Z,38.07
2018-07-23T13:33:46.754Z,40.19
2018-07-23T13:36:17.861Z,39.76
2018-07-23T13:38:51.574Z,39.24
2018-07-23T13:41:22.715Z,40.36
2018-07-23T13:43:53.589Z,40.78
2018-07-23T13:46:27.701Z,40.60
2018-07-23T13:49:01.534Z,40.78
2018-07-23T13:51:36.231Z,39.98
2018-07-23T13:54:14.611Z,40.74
2018-07-23T13:56:47.096Z,41.02
2018-07-23T13:59:17.335Z,38.78
2018-07-23T14:01:47.811Z,38.56
2018-07-23T14:04:19.676Z,37.33
2018-07-23T14:06:50.567Z,37.17
2018-07-23T14:09:21.238Z,37.77
2018-07-23T14:11:52.135Z,37.85
2018-07-23T14:14:23.329Z,36.66
2018-07-23T14:16:53.693Z,37.67
2018-07-23T14:19:26.934Z,36.75
2018-07-23T14:22:01.964Z,37.45
2018-07-23T14:24:33.384Z,37.79
2018-07-23T14:27:04.280Z,38.31
2018-07-23T14:29:35.034Z,37.92
2018-07-23T14:32:07.840Z,37.28
2018-07-23T14:34:39.234Z,38.46
2018-07-23T14:37:10.145Z,37.29
2018-07-23T14:39:40.380Z,37.65
2018-07-23T14:42:10.607Z,36.69
2018-07-23T14:44:42.252Z,36.29
2018-07-23T14:47:14.031Z,38.14
2018-07-23T14:49:44.275Z,36.07
2018-07-23T14:52:17.429Z,38.61
2018-07-23T14:54:47.631Z,36.97
2018-07-23T14:57:17.868Z,37.72
2018-07-23T14:59:51.605Z,37.82
2018-07-23T15:02:22.838Z,37.79
2018-07-23T15:04:53.558Z,37.71
2018-07-23T15:07:25.194Z,36.47
2018-07-23T15:09:56.141Z,36.75
2018-07-23T15:12:27.533Z,37.07
2018-07-23T15:14:59.278Z,36.59
2018-07-23T15:17:39.301Z,37.87
2018-07-23T15:20:12.687Z,37.53
2018-07-23T15:22:43.941Z,37.79
2018-07-23T15:25:15.504Z,37.40
2018-07-23T15:27:46.396Z,38.53
2018-07-23T15:30:16.784Z,37.72
2018-07-23T15:32:49.090Z,37.95
2018-07-23T15:35:19.926Z,38.08
2018-07-23T15:37:50.439Z,36.89
2018-07-23T15:40:21.467Z,35.78
2018-07-23T15:43:04.881Z,36.55
2018-07-23T15:45:38.809Z,35.92
2018-07-23T15:48:09.598Z,34.69
2018-07-23T15:50:44.923Z,34.55
2018-07-23T15:53:17.285Z,34.36
2018-07-23T15:55:49.573Z,35.04
2018-07-23T15:58:21.773Z,34.42
2018-07-23T16:00:52.435Z,34.22
2018-07-23T16:03:22.952Z,33.62
2018-07-23T16:05:54.588Z,34.10
2018-07-23T16:08:25.217Z,33.62
2018-07-23T16:10:55.632Z,33.96
2018-07-23T16:13:26.963Z,35.37
2018-07-23T16:15:57.931Z,35.51
2018-07-23T16:18:29.933Z,36.11
2018-07-23T16:21:01.340Z,34.67
2018-07-23T16:23:33.504Z,34.10
2018-07-23T16:26:05.273Z,34.28
2018-07-23T16:28:35.491Z,35.10
2018-07-23T16:31:12.436Z,34.53
2018-07-23T16:33:42.563Z,34.34
2018-07-23T16:36:13.484Z,35.17
2018-07-23T16:38:46.366Z,33.76
2018-07-23T16:41:20.871Z,34.34
2018-07-23T16:43:55.530Z,34.32
2018-07-23T16:46:27.000Z,32.20
2018-07-23T16:48:59.740Z,32.02
2018-07-23T16:51:30.190Z,33.03
2018-07-23T16:54:02.424Z,32.74
2018-07-23T16:56:34.640Z,33.37
2018-07-23T16:59:06.361Z,33.62
2018-07-23T17:01:39.052Z,34.01
2018-07-23T17:04:13.150Z,34.61
2018-07-23T17:06:43.720Z,33.84
2018-07-23T17:09:14.332Z,33.80
2018-07-23T17:11:45.644Z,34.28
2018-07-23T17:14:17.415Z,34.03
2018-07-23T17:16:47.837Z,34.84
2018-07-23T17:19:20.471Z,35.96
2018-07-23T17:21:56.819Z,35.13
2018-07-23T17:24:29.475Z,35.71
2018-07-23T17:27:03.704Z,37.31
2018-07-23T17:29:34.579Z,37.20
2018-07-23T17:32:08.152Z,37.45
2018-07-23T17:34:40.463Z,36.85
2018-07-23T17:37:11.891Z,37.23
2018-07-23T17:39:44.349Z,38.89
2018-07-23T17:42:14.850Z,38.64
2018-07-23T17:44:46.639Z,39.76
2018-07-23T17:47:18.314Z,39.08
2018-07-23T17:49:49.427Z,40.21
2018-07-23T17:52:19.595Z,38.96
2018-07-23T17:54:50.240Z,39.46
2018-07-23T17:57:23.674Z,39.08
2018-07-23T17:59:55.890Z,40.57
2018-07-23T18:02:30.905Z,41.23
2018-07-23T18:05:01.748Z,42.09
2018-07-23T18:07:33.707Z,42.04
2018-07-23T18:10:04.583Z,41.74
2018-07-23T18:12:35.655Z,41.55
2018-07-23T18:15:06.482Z,42.55
2018-07-23T18:17:48.793Z,42.55
2018-07-23T18:20:23.589Z,42.62
2018-07-23T18:22:55.475Z,44.46
2018-07-23T18:25:26.692Z,43.44
2018-07-23T18:27:58.037Z,44.38
2018-07-23T18:30:28.314Z,44.29
2018-07-23T18:33:01.392Z,43.42
2018-07-23T18:35:35.534Z,44.40
2018-07-23T18:38:06.583Z,44.65
2018-07-23T18:40:38.156Z,44.69
2018-07-23T18:43:10.302Z,44.64
2018-07-23T18:45:44.469Z,46.14
2018-07-23T18:48:32.395Z,47.54
2018-07-23T18:51:03.838Z,47.70
2018-07-23T18:53:36.680Z,49.44
2018-07-23T18:56:08.426Z,48.71
2018-07-23T18:58:40.263Z,49.72
2018-07-23T19:01:14.075Z,50.21
2018-07-23T19:09:35.622Z,51.85
2018-07-23T19:12:07.438Z,50.32
2018-07-23T19:14:39.599Z,51.03
2018-07-23T19:17:12.619Z,51.17
2018-07-23T19:19:43.380Z,50.76
2018-07-23T19:22:14.938Z,52.35
2018-07-23T19:24:57.419Z,52.62
2018-07-23T19:27:30.604Z,51.88
2018-07-23T19:30:05.426Z,54.54
2018-07-23T19:32:37.176Z,54.16
2018-07-23T19:35:11.276Z,54.13
2018-07-23T19:37:43.064Z,52.97
2018-07-23T19:40:20.257Z,53.27
2018-07-23T19:42:51.800Z,53.55
2018-07-23T19:45:26.332Z,54.75
2018-07-23T19:47:57.657Z,55.26
2018-07-23T19:50:37.389Z,56.00
2018-07-23T19:53:07.985Z,56.52
2018-07-23T19:55:45.688Z,55.35
2018-07-23T19:58:16.855Z,57.93
2018-07-23T20:00:50.409Z,57.57
2018-07-23T20:03:23.052Z,57.02
2018-07-23T20:05:56.427Z,56.11
2018-07-23T20:08:32.838Z,56.86
2018-07-23T20:11:03.747Z,57.74
2018-07-23T20:13:37.411Z,57.00
2018-07-23T20:16:16.686Z,59.11
2018-07-23T20:18:48.837Z,58.88
2018-07-23T20:21:23.223Z,59.33
2018-07-23T20:24:06.435Z,58.16
2018-07-23T20:26:39.686Z,58.77
2018-07-23T20:29:10.405Z,60.42
2018-07-23T20:31:44.034Z,61.52
2018-07-23T20:34:17.599Z,60.10
2018-07-23T20:36:47.668Z,60.88
2018-07-23T20:39:25.639Z,60.00
2018-07-23T20:41:56.771Z,61.23
2018-07-23T20:44:28.845Z,61.67
2018-07-23T20:47:01.015Z,62.50
2018-07-23T20:49:33.820Z,62.08
2018-07-23T20:52:11.616Z,62.25
2018-07-23T20:54:45.030Z,62.59
2018-07-23T20:57:16.400Z,63.96
2018-07-23T20:59:54.707Z,64.85
2018-07-23T21:02:28.128Z,64.16
2018-07-23T21:05:00.871Z,63.27
2018-07-23T21:07:35.105Z,64.15
2018-07-23T21:10:09.985Z,64.44
2018-07-23T21:12:44.099Z,65.29
2018-07-23T21:15:16.532Z,66.54
2018-07-23T21:17:48.255Z,64.80
2018-07-23T21:20:18.460Z,65.33
2018-07-23T21:22:49.695Z,65.62
2018-07-23T21:25:20.237Z,65.37
2018-07-23T21:27:51.448Z,65.55
2018-07-23T21:30:22.548Z,64.80
2018-07-23T21:32:53.254Z,65.85
2018-07-23T21:35:26.467Z,65.58
2018-07-23T21:37:56.556Z,66.03
2018-07-23T21:40:27.406Z,66.14
2018-07-23T21:42:57.903Z,66.78
2018-07-23T21:45:30.319Z,66.71
2018-07-23T21:48:03.300Z,66.56
2018-07-23T21:50:34.307Z,67.21
2018-07-23T21:53:05.282Z,67.01
2018-07-23T21:55:39.196Z,67.40
2018-07-23T21:58:10.316Z,67.33
2018-07-23T22:00:43.720Z,67.01
2018-07-23T22:03:14.485Z,67.43
2018-07-23T22:05:46.691Z,67.34
2018-07-23T22:08:18.208Z,68.26
2018-07-23T22:10:48.745Z,68.69
2018-07-23T22:13:20.974Z,68.10
2018-07-23T22:15:53.792Z,68.52
2018-07-23T22:18:24.956Z,68.61
2018-07-23T22:20:56.970Z,68.97
2018-07-23T22:23:27.675Z,68.51
2018-07-23T22:25:57.762Z,68.76
2018-07-23T22:28:29.531Z,69.94
2018-07-23T22:31:00.519Z,68.41
2018-07-23T22:33:33.143Z,69.03
2018-07-23T22:36:03.872Z,68.82
2018-07-23T22:38:36.059Z,70.17
2018-07-23T22:41:06.249Z,70.90
2018-07-23T22:43:38.460Z,69.28
2018-07-23T22:46:12.121Z,69.69
2018-07-23T22:48:44.457Z,70.09
2018-07-23T22:51:15.549Z,70.79
2018-07-23T22:53:46.356Z,69.49
2018-07-23T22:56:17.459Z,70.52
2018-07-23T22:58:48.372Z,69.54
2018-07-23T23:01:18.994Z,69.74
2018-07-23T23:03:52.367Z,70.53
2018-07-23T23:06:27.282Z,70.86
2018-07-23T23:08:58.405Z,71.71
2018-07-23T23:11:29.784Z,71.89
2018-07-23T23:14:00.223Z,70.53
2018-07-23T23:16:31.400Z,70.87
2018-07-23T23:19:03.068Z,70.63
2018-07-23T23:21:36.941Z,70.69
2018-07-23T23:24:07.693Z,71.14
2018-07-23T23:26:38.574Z,72.12
2018-07-23T23:29:09.219Z,72.11
2018-07-23T23:31:39.821Z,71.27
2018-07-23T23:34:09.911Z,71.48
2018-07-23T23:36:40.095Z,72.48
2018-07-23T23:39:12.227Z,72.09
2018-07-23T23:41:42.349Z,71.78
2018-07-23T23:44:12.424Z,72.62
2018-07-23T23:46:42.583Z,72.49
2018-07-23T23:49:14.494Z,72.07
2018-07-23T23:51:44.633Z,71.84
2018-07-23T23:54:14.704Z,72.36
2018-07-23T23:56:44.900Z,71.78
2018-07-23T23:59:15.417Z,71.96
